Deo Volente — PHFJ — position and weather

sailwx.info

Track history (hours):
 
Tides and Currents Weather Stations Pressure Air Temp Water Temp Dewpoint Dewpoint Depression Visibility Wind Speed Wind Dir Waves Ship Positions

Deo Volente

Last reported at 2016-Sep-26 08:31 UTC. Time now 2016-Sep-29 08:26 UTC.
Position N 51°40' E 003°19'.

Length 105 m; draft 5.2 m.

Type: Cargo ship. MMSI: 246518000.

Date/timePositionNaut miles runAvg speedWind from/ knotsBaromVisibWave heightAir tempDewpointWater temp
2016-Sep-26 08:31N 51°40' E 003°19'2 0.3
2016-Sep-26 02:33N 51°42' E 003°17'2410.2
2016-Sep-26 00:12N 52°03' E 003°35'3011.3
2016-Sep-25 21:33N 51°54' E 004°21'0 0.0
2016-Sep-25 17:33N 51°54' E 004°21'0 0.0
2016-Sep-25 16:34N 51°54' E 004°21'0 0.0
2016-Sep-25 15:34N 51°54' E 004°21'0 0.0
2016-Sep-25 14:34N 51°54' E 004°21'0 0.0
2016-Sep-25 12:34N 51°54' E 004°21'0 0.0
2016-Sep-25 11:34N 51°54' E 004°21'0 0.0
2016-Sep-25 10:34N 51°54' E 004°21'0 0.0
2016-Sep-25 09:34N 51°54' E 004°21'0 0.0
2016-Sep-25 04:34N 51°54' E 004°21'0 0.0
2016-Sep-24 22:34N 51°54' E 004°21'0 0.0
2016-Sep-24 21:33N 51°54' E 004°21'0 0.0
2016-Sep-24 19:34N 51°54' E 004°21'0 0.0
2016-Sep-24 18:34N 51°54' E 004°21'0 0.0
2016-Sep-24 17:34N 51°54' E 004°21'0 0.0
2016-Sep-24 16:34N 51°54' E 004°21'0 0.0
2016-Sep-24 14:34N 51°54' E 004°21'0 0.0
2016-Sep-24 12:34N 51°54' E 004°21'0 0.0
2016-Sep-24 10:33N 51°54' E 004°21'0 0.0
2016-Sep-24 09:34N 51°54' E 004°21'8013.3
2016-Sep-24 03:33N 51°29' E 002°19'1616.0
2016-Sep-24 02:33N 51°16' E 002°05'1515.2
2016-Sep-24 01:33N 51°06' E 001°47'1514.7
2016-Sep-24 00:33N 50°55' E 001°31'7414.9
2016-Sep-23 19:34N 50°18' W 000°11'22017.0
2016-Sep-23 06:33N 48°51' W 005°23'60315.9
2016-Sep-21 16:33N 39°19' W 009°51'12315.3
2016-Sep-21 08:31N 37°18' W 009°25'4113.9
2016-Sep-21 05:34N 36°43' W 008°59'3615.5
2016-Sep-21 03:13N 36°33' W 008°16'1116.0
2016-Sep-21 02:34N 36°30' W 008°04'13414.9
2016-Sep-20 17:33N 36°01' W 005°21'13614.9
2016-Sep-20 08:27N 36°23' W 002°34'8915.0
2016-Sep-20 02:32N 37°14' W 001°03'18515.4
2016-Sep-19 14:33N 39°22' E 001°47'1615.8
2016-Sep-19 13:33N 39°31' E 002°03'1616.0
2016-Sep-19 12:33N 39°40' E 002°21'1616.2
2016-Sep-19 11:33N 39°49' E 002°38'2711.5
2016-Sep-19 09:13N 39°51' E 003°13'3 2.0
2016-Sep-19 07:33N 39°50' E 003°09'0 0.0
2016-Sep-19 06:33N 39°50' E 003°09'21 6.8
2016-Sep-19 03:33N 39°47' E 003°35'1514.7
2016-Sep-19 02:31N 39°44' E 003°54'23014.4
2016-Sep-18 10:33N 38°47' E 008°42'2315.7
2016-Sep-18 09:05N 38°42' E 009°11'16515.5
2016-Sep-17 22:24N 38°31' E 012°41'1515.5
2016-Sep-17 21:27N 38°29' E 013°00'1415.5
2016-Sep-17 20:33N 38°28' E 013°18'2015.5
2016-Sep-17 19:15N 38°26' E 013°44'8815.5
2016-Sep-17 13:33N 38°20' E 015°36'1010.1
2016-Sep-17 12:33N 38°10' E 015°36'  
Track history (hours):
 
Tides and Currents Weather Stations Pressure Air Temp Water Temp Dewpoint Dewpoint Depression Visibility Wind Speed Wind Dir Waves Ship Positions

Deo Volente

Last reported at 2016-Sep-26 08:31 UTC. Time now 2016-Sep-29 08:26 UTC.
Position N 51°40' E 003°19'.

Length 105 m; draft 5.2 m.

Type: Cargo ship. MMSI: 246518000.

Date/timePositionNaut miles runAvg speedWind from/ knotsBaromVisibWave heightAir tempDewpointWater temp
2016-Sep-26 08:31N 51°40' E 003°19'2 0.3
2016-Sep-26 02:33N 51°42' E 003°17'2410.2
2016-Sep-26 00:12N 52°03' E 003°35'3011.3
2016-Sep-25 21:33N 51°54' E 004°21'0 0.0
2016-Sep-25 17:33N 51°54' E 004°21'0 0.0
2016-Sep-25 16:34N 51°54' E 004°21'0 0.0
2016-Sep-25 15:34N 51°54' E 004°21'0 0.0
2016-Sep-25 14:34N 51°54' E 004°21'0 0.0
2016-Sep-25 12:34N 51°54' E 004°21'0 0.0
2016-Sep-25 11:34N 51°54' E 004°21'0 0.0
2016-Sep-25 10:34N 51°54' E 004°21'0 0.0
2016-Sep-25 09:34N 51°54' E 004°21'0 0.0
2016-Sep-25 04:34N 51°54' E 004°21'0 0.0
2016-Sep-24 22:34N 51°54' E 004°21'0 0.0
2016-Sep-24 21:33N 51°54' E 004°21'0 0.0
2016-Sep-24 19:34N 51°54' E 004°21'0 0.0
2016-Sep-24 18:34N 51°54' E 004°21'0 0.0
2016-Sep-24 17:34N 51°54' E 004°21'0 0.0
2016-Sep-24 16:34N 51°54' E 004°21'0 0.0
2016-Sep-24 14:34N 51°54' E 004°21'0 0.0
2016-Sep-24 12:34N 51°54' E 004°21'0 0.0
2016-Sep-24 10:33N 51°54' E 004°21'0 0.0
2016-Sep-24 09:34N 51°54' E 004°21'8013.3
2016-Sep-24 03:33N 51°29' E 002°19'1616.0
2016-Sep-24 02:33N 51°16' E 002°05'1515.2
2016-Sep-24 01:33N 51°06' E 001°47'1514.7
2016-Sep-24 00:33N 50°55' E 001°31'7414.9
2016-Sep-23 19:34N 50°18' W 000°11'22017.0
2016-Sep-23 06:33N 48°51' W 005°23'60315.9
2016-Sep-21 16:33N 39°19' W 009°51'12315.3
2016-Sep-21 08:31N 37°18' W 009°25'4113.9
2016-Sep-21 05:34N 36°43' W 008°59'3615.5
2016-Sep-21 03:13N 36°33' W 008°16'1116.0
2016-Sep-21 02:34N 36°30' W 008°04'13414.9
2016-Sep-20 17:33N 36°01' W 005°21'13614.9
2016-Sep-20 08:27N 36°23' W 002°34'8915.0
2016-Sep-20 02:32N 37°14' W 001°03'18515.4
2016-Sep-19 14:33N 39°22' E 001°47'1615.8
2016-Sep-19 13:33N 39°31' E 002°03'1616.0
2016-Sep-19 12:33N 39°40' E 002°21'1616.2
2016-Sep-19 11:33N 39°49' E 002°38'2711.5
2016-Sep-19 09:13N 39°51' E 003°13'3 2.0
2016-Sep-19 07:33N 39°50' E 003°09'0 0.0
2016-Sep-19 06:33N 39°50' E 003°09'21 6.8
2016-Sep-19 03:33N 39°47' E 003°35'1514.7
2016-Sep-19 02:31N 39°44' E 003°54'23014.4
2016-Sep-18 10:33N 38°47' E 008°42'2315.7
2016-Sep-18 09:05N 38°42' E 009°11'16515.5
2016-Sep-17 22:24N 38°31' E 012°41'1515.5
2016-Sep-17 21:27N 38°29' E 013°00'1415.5
2016-Sep-17 20:33N 38°28' E 013°18'2015.5
2016-Sep-17 19:15N 38°26' E 013°44'8815.5
2016-Sep-17 13:33N 38°20' E 015°36'1010.1
2016-Sep-17 12:33N 38°10' E 015°36'  

Dump ship's entire track history